Mali Bukovec HR Speed Test Log

Averages  Max Speed    
1 to 25 of 117** for City Mali Bukovec HR
Time
  
  Speed   Provider Size    User ConnectID   TestID  
11/30/19 11:53:16 pm 236 kbps 30 kB/sHrvatski 480 kB7181377438 c-VijYo5c 
11/17/19 5:14:13 pm 21.19 Mbps 2.65 MB/sIskon 23.4 MB12942796488540 XSj38pheG 
7/7/19 5:20:13 pm 15.33 Mbps 1.92 MB/sHrvatski 21.3 MB85416050152 _AJwZvM7U 
7/7/19 5:05:11 pm 15.62 Mbps 1.95 MB/sHrvatski 20.7 MB85416050152 jwfHZ~dwO 
7/7/19 4:50:11 pm 15 Mbps 1.87 MB/sHrvatski 20.8 MB85416050152 POd8BVLvT 
7/7/19 4:35:09 pm 15.58 Mbps 1.95 MB/sHrvatski 21.4 MB85416050152 3nknko0k~ 
7/7/19 4:20:13 pm 14.98 Mbps 1.87 MB/sHrvatski 21.2 MB85416050152 CHaAzD71M 
7/7/19 4:05:07 pm 15.41 Mbps 1.93 MB/sHrvatski 21.4 MB85416050152 dKFlI8cFd 
7/7/19 3:50:07 pm 14.86 Mbps 1.86 MB/sHrvatski 21.3 MB85416050152 JTnLB71vy 
7/7/19 3:35:06 pm 15.08 Mbps 1.89 MB/sHrvatski 20.9 MB85416050152 JwdlF7BpB 
7/7/19 3:20:07 pm 12.88 Mbps 1.61 MB/sHrvatski 20.8 MB85416050152 lrN~8gcT5 
7/7/19 3:05:06 pm 12.43 Mbps 1.55 MB/sHrvatski 20.9 MB85416050152 I3EkTKZMi 
7/7/19 2:50:03 pm 14.02 Mbps 1.75 MB/sHrvatski 20.9 MB85416050152 EhqWlvIos 
7/7/19 2:35:03 pm 13.32 Mbps 1.67 MB/sHrvatski 21.3 MB85416050152 qYADTCN6E 
7/7/19 2:20:06 pm 11.04 Mbps 1.38 MB/sHrvatski 21.2 MB85416050152 _MSEohsyQ 
7/7/19 2:05:07 pm 12.51 Mbps 1.56 MB/sHrvatski 20.9 MB85416050152 8rFEoHTUj 
7/7/19 1:50:08 pm 13.39 Mbps 1.67 MB/sHrvatski 35.6 MB85416050152 ATdtIACb1 
7/7/19 1:35:01 pm 14.53 Mbps 1.82 MB/sHrvatski 21.1 MB85416050152 4U2yBYMWR 
7/7/19 1:19:58 pm 11.15 Mbps 1.39 MB/sHrvatski 21.5 MB85416050152 IH-yjT_iG 
7/7/19 1:04:51 pm 15.56 Mbps 1.95 MB/sHrvatski 21.3 MB85416050152 Bl1~phCQp 
7/7/19 12:49:50 pm 14.57 Mbps 1.82 MB/sHrvatski 21.5 MB85416050152 dui1sdcAf 
7/7/19 12:34:54 pm 15.47 Mbps 1.93 MB/sHrvatski 21.5 MB85416050152 o3JyQ_wZ9 
7/7/19 12:19:47 pm 13.79 Mbps 1.72 MB/sHrvatski 20.7 MB85416050152 vIX2k-pPI 
7/7/19 12:04:42 pm 15.13 Mbps 1.89 MB/sHrvatski 20.9 MB85416050152 WVNW08Oeh 
7/7/19 11:49:40 am 15.44 Mbps 1.93 MB/sHrvatski 20.9 MB85416050152 YhZVVdXm_ 
  
** Partial Results: The most recent results have been displayed. Results over 50 Mbps are highlighted.
Calculated from graphed results above not entire query.
Displaying Internet Speed Test results for City Mali Bukovec HR

Minimum

Min 0.24 Mbps

Average

Avg 13.94 Mbps

Maximum

Max 21.19 Mbps

Minimum

Min: 0.24 Mbps |

Average

Avg: 13.94 Mbps |

Maximum

Max: 21.19 Mbps